Time;durP1;ratioP1;P1;durP2;ratioP2;P2;SDS_P1;SDS_P2;PMS_P1;PMS_P2;Temp;Humidity;BMP_temperature;BMP_pressure;BME280_temperature;BME280_humidity;BME280_pressure;Samples;Min_cycle;Max_cycle;Signal;HPM_P1;HPM_P2
2021/01/21 00:00:25;;;;;;;0.40;0.30;;;;;;;6.37;77.10;99419.81;5076115;28;20865;-72
2021/01/21 00:02:51;;;;;;;0.80;0.70;;;;;;;6.48;77.25;99415.84;5076218;28;20473;-72
2021/01/21 00:05:17;;;;;;;0.40;0.30;;;;;;;6.54;77.37;99411.91;5076003;28;20465;-71
2021/01/21 00:07:43;;;;;;;0.50;0.40;;;;;;;6.58;76.67;99407.53;5076030;28;20433;-72
2021/01/21 00:10:10;;;;;;;0.40;0.30;;;;;;;6.67;75.37;99400.31;5075921;28;20468;-71
2021/01/21 00:12:36;;;;;;;0.57;0.50;;;;;;;6.78;73.89;99407.06;5075988;28;20473;-72
2021/01/21 00:15:05;;;;;;;0.50;0.33;;;;;;;6.81;74.40;99409.13;5075827;28;20468;-71
2021/01/21 00:17:31;;;;;;;0.40;0.30;;;;;;;6.83;73.73;99406.94;5075609;28;20797;-72
2021/01/21 00:19:57;;;;;;;1.00;1.00;;;;;;;6.80;74.29;99412.13;5075817;28;20594;-71
2021/01/21 00:22:23;;;;;;;0.60;0.50;;;;;;;6.76;74.98;99411.16;5075796;28;20833;-71
2021/01/21 00:24:49;;;;;;;0.60;0.40;;;;;;;6.74;74.34;99406.09;5075479;28;20885;-72
2021/01/21 00:27:16;;;;;;;0.40;0.30;;;;;;;6.68;75.00;99403.81;5075766;28;20492;-72
2021/01/21 00:29:42;;;;;;;0.40;0.30;;;;;;;6.66;74.29;99401.44;5075723;28;20433;-71
2021/01/21 00:32:09;;;;;;;0.40;0.30;;;;;;;6.58;75.02;99407.53;5075697;28;20499;-72
2021/01/21 00:34:35;;;;;;;1.53;0.90;;;;;;;6.51;75.11;99407.16;5075530;28;20464;-72
2021/01/21 00:37:01;;;;;;;0.43;0.33;;;;;;;6.43;75.93;99403.28;5075593;28;20441;-71
2021/01/21 00:39:27;;;;;;;0.40;0.30;;;;;;;6.41;75.88;99393.91;5075222;28;20603;-71
2021/01/21 00:41:53;;;;;;;0.90;0.80;;;;;;;6.40;75.61;99393.13;5075484;28;20848;-72
2021/01/21 00:44:20;;;;;;;0.40;0.30;;;;;;;6.42;74.74;99392.81;5075308;28;20488;-72
2021/01/21 00:46:46;;;;;;;0.40;0.30;;;;;;;6.44;74.08;99391.44;5075446;28;20476;-72
2021/01/21 00:49:13;;;;;;;0.50;0.50;;;;;;;6.51;74.58;99389.13;5075060;28;20977;-71
2021/01/21 00:51:39;;;;;;;1.37;0.70;;;;;;;6.50;73.63;99375.97;5075320;28;20809;-72
2021/01/21 00:54:05;;;;;;;0.70;0.53;;;;;;;6.51;75.11;99380.28;5075050;28;20530;-72
2021/01/21 00:56:31;;;;;;;0.40;0.30;;;;;;;6.49;74.47;99385.94;5074206;28;20425;-71
2021/01/21 00:58:57;;;;;;;0.50;0.40;;;;;;;6.52;74.72;99381.84;5074855;28;20445;-72
2021/01/21 01:01:24;;;;;;;0.40;0.30;;;;;;;6.56;74.36;99385.53;5074701;28;20516;-72
2021/01/21 01:03:51;;;;;;;0.40;0.40;;;;;;;6.60;74.86;99380.31;5075008;28;20503;-72
2021/01/21 01:06:18;;;;;;;0.60;0.50;;;;;;;6.60;73.87;99385.69;5075953;28;20457;-72
2021/01/21 01:08:44;;;;;;;0.50;0.50;;;;;;;6.62;73.08;99386.19;5075372;28;20448;-72
2021/01/21 01:11:11;;;;;;;0.40;0.20;;;;;;;6.65;73.56;99389.09;5074889;28;20448;-73
2021/01/21 01:13:37;;;;;;;0.67;0.63;;;;;;;6.65;73.95;99388.28;5074532;28;20934;-72
2021/01/21 01:16:03;;;;;;;0.40;0.30;;;;;;;6.64;74.36;99387.50;5074720;28;20491;-72
2021/01/21 01:18:30;;;;;;;0.63;0.60;;;;;;;6.64;73.39;99376.72;5074517;28;20472;-71
2021/01/21 01:20:56;;;;;;;1.37;1.07;;;;;;;6.61;73.74;99377.34;5074740;28;20897;-72
2021/01/21 01:23:23;;;;;;;0.40;0.30;;;;;;;6.64;72.11;99374.03;5074616;28;20441;-71
2021/01/21 01:25:52;;;;;;;2.10;0.60;;;;;;;6.69;71.55;99367.75;5074211;28;20536;-72
2021/01/21 01:28:19;;;;;;;0.40;0.30;;;;;;;6.58;72.52;99365.28;5074588;28;20445;-72
2021/01/21 01:30:45;;;;;;;0.40;0.30;;;;;;;6.60;72.25;99369.53;5074228;28;20433;-72
2021/01/21 01:33:11;;;;;;;0.40;0.30;;;;;;;6.67;71.46;99370.72;5074424;28;20511;-72
2021/01/21 01:35:37;;;;;;;0.40;0.30;;;;;;;6.71;70.33;99366.31;5074375;28;20468;-73
2021/01/21 01:38:03;;;;;;;1.70;1.07;;;;;;;6.68;70.71;99360.75;5074018;28;20449;-73
2021/01/21 01:40:30;;;;;;;0.40;0.30;;;;;;;6.69;70.75;99357.00;5073917;28;20524;-72
2021/01/21 01:42:57;;;;;;;1.47;1.27;;;;;;;6.65;70.83;99359.50;5073943;28;20962;-73
2021/01/21 01:45:23;;;;;;;0.40;0.30;;;;;;;6.62;71.37;99357.41;5074242;28;20568;-71
2021/01/21 01:47:50;;;;;;;0.63;0.63;;;;;;;6.65;70.22;99346.03;5074194;28;20496;-72
2021/01/21 01:50:16;;;;;;;0.40;0.30;;;;;;;6.68;69.14;99350.00;5073887;28;20492;-72
2021/01/21 01:52:43;;;;;;;1.80;1.70;;;;;;;6.66;70.00;99350.31;5074104;28;20437;-71
2021/01/21 01:55:11;;;;;;;0.40;0.30;;;;;;;6.69;70.13;99349.72;5073649;28;20484;-74
2021/01/21 01:57:40;;;;;;;0.50;0.40;;;;;;;6.66;70.86;99358.38;5073710;28;20939;-72
2021/01/21 02:00:07;;;;;;;0.67;0.57;;;;;;;6.61;70.22;99350.44;5073889;28;20485;-72
2021/01/21 02:02:34;;;;;;;0.40;0.30;;;;;;;6.65;69.09;99335.28;5073961;28;20469;-72
2021/01/21 02:05:01;;;;;;;0.40;0.30;;;;;;;6.68;69.65;99323.88;5073876;28;20497;-72
2021/01/21 02:07:27;;;;;;;0.40;0.30;;;;;;;6.70;69.37;99326.28;5073644;28;20451;-72
2021/01/21 02:09:55;;;;;;;0.57;0.57;;;;;;;6.69;68.51;99317.41;5073791;28;20491;-72
2021/01/21 02:12:32;;;;;;;0.50;0.50;;;;;;;6.74;67.72;99325.38;5073508;28;20437;-73
2021/01/21 02:15:08;;;;;;;1.97;0.50;;;;;;;6.77;68.94;99311.31;5073373;28;20655;-72
2021/01/21 02:17:39;;;;;;;0.93;0.63;;;;;;;6.80;67.42;99310.66;5073347;28;20434;-72
2021/01/21 02:20:33;;;;;;;0.57;0.40;;;;;;;6.88;66.78;99301.06;5073281;28;20985;-71
2021/01/21 02:23:31;;;;;;;0.40;0.30;;;;;;;6.83;69.01;99307.38;5073637;28;20426;-72
2021/01/21 02:26:03;;;;;;;0.60;0.50;;;;;;;6.82;69.52;99286.94;5073453;28;20467;-72
2021/01/21 02:29:03;;;;;;;0.40;0.30;;;;;;;6.86;67.92;99299.78;5073594;28;20453;-72
2021/01/21 02:31:46;;;;;;;0.83;0.83;;;;;;;6.94;67.91;99296.34;5073578;28;20418;-71
2021/01/21 02:34:18;;;;;;;0.40;0.30;;;;;;;7.06;66.93;99293.88;5072748;28;20505;-72
2021/01/21 02:36:52;;;;;;;0.40;0.30;;;;;;;7.06;67.63;99283.09;5073344;28;20433;-72
2021/01/21 02:39:20;;;;;;;0.40;0.40;;;;;;;7.02;66.91;99280.22;5073065;28;20925;-73
2021/01/21 02:41:46;;;;;;;0.77;0.57;;;;;;;7.10;66.22;99276.00;5073268;28;20449;-72
2021/01/21 02:44:13;;;;;;;1.07;0.97;;;;;;;7.13;67.35;99269.19;5072927;28;20877;-72
2021/01/21 02:46:39;;;;;;;0.40;0.30;;;;;;;7.15;66.25;99265.09;5073323;28;20426;-73
2021/01/21 02:49:05;;;;;;;1.10;0.73;;;;;;;7.25;66.52;99256.72;5073281;28;20499;-72
2021/01/21 02:51:40;;;;;;;0.40;0.30;;;;;;;7.32;65.02;99261.69;5073229;28;20522;-72
2021/01/21 02:54:25;;;;;;;0.50;0.30;;;;;;;7.46;64.46;99246.19;5073091;28;20529;-72
2021/01/21 02:56:56;;;;;;;0.60;0.50;;;;;;;7.53;63.54;99248.44;5073252;28;20511;-72
2021/01/21 02:59:25;;;;;;;0.40;0.30;;;;;;;7.54;65.69;99258.09;5073150;28;20421;-71
2021/01/21 03:01:54;;;;;;;1.57;1.47;;;;;;;7.58;63.53;99269.84;5073170;28;20445;-73
2021/01/21 03:04:23;;;;;;;0.40;0.30;;;;;;;7.65;64.50;99277.44;5073156;28;20575;-73
2021/01/21 03:06:51;;;;;;;0.50;0.40;;;;;;;7.66;64.77;99258.28;5074414;28;20473;-72
2021/01/21 03:09:18;;;;;;;1.17;1.10;;;;;;;7.64;64.63;99265.88;5073064;28;20857;-72
2021/01/21 03:11:44;;;;;;;0.50;0.40;;;;;;;7.66;63.82;99262.84;5073128;28;20442;-73
2021/01/21 03:14:10;;;;;;;0.40;0.30;;;;;;;7.65;62.89;99259.38;5073014;28;20496;-74
2021/01/21 03:16:36;;;;;;;0.40;0.30;;;;;;;7.68;64.48;99260.66;5072319;28;20453;-73
2021/01/21 03:19:03;;;;;;;0.40;0.20;;;;;;;7.63;64.86;99250.03;5073228;28;20449;-73
2021/01/21 03:21:29;;;;;;;1.63;1.00;;;;;;;7.65;64.10;99254.00;5076971;28;20488;-72
2021/01/21 03:23:56;;;;;;;0.40;0.30;;;;;;;7.47;65.79;99245.06;5077028;28;20468;-73
2021/01/21 03:26:22;;;;;;;0.60;0.30;;;;;;;7.44;65.91;99247.63;5076857;28;20868;-73
2021/01/21 03:28:48;;;;;;;0.40;0.30;;;;;;;7.50;65.12;99238.28;5076999;28;20445;-72
2021/01/21 03:31:14;;;;;;;0.60;0.60;;;;;;;7.50;65.57;99243.66;5076641;28;20789;-74
2021/01/21 03:33:41;;;;;;;0.40;0.30;;;;;;;7.51;65.69;99237.16;5077174;28;20875;-74
2021/01/21 03:36:07;;;;;;;0.83;0.83;;;;;;;7.55;64.47;99235.44;5076736;28;20508;-73
2021/01/21 03:38:33;;;;;;;0.40;0.30;;;;;;;7.55;64.50;99227.34;5076755;28;20891;-73
2021/01/21 03:41:00;;;;;;;0.40;0.30;;;;;;;7.53;64.93;99226.88;5076596;28;20534;-73
2021/01/21 03:43:26;;;;;;;9.73;0.90;;;;;;;7.63;63.49;99231.97;5076651;28;20492;-73
2021/01/21 03:45:52;;;;;;;0.60;0.60;;;;;;;7.63;64.03;99229.28;5076616;28;20468;-72
2021/01/21 03:48:19;;;;;;;5.30;0.63;;;;;;;7.63;64.68;99229.28;5076497;28;20506;-73
2021/01/21 03:50:45;;;;;;;0.40;0.37;;;;;;;7.69;62.77;99233.38;5076155;28;20452;-73
2021/01/21 03:53:11;;;;;;;1.47;0.40;;;;;;;7.73;63.96;99218.19;5076401;28;20457;-73
2021/01/21 03:55:38;;;;;;;0.47;0.33;;;;;;;7.69;63.36;99217.22;5075935;28;20482;-73
2021/01/21 03:58:05;;;;;;;0.40;0.40;;;;;;;7.75;63.66;99217.88;5076541;28;20494;-73
2021/01/21 04:00:31;;;;;;;0.40;0.30;;;;;;;7.71;62.92;99208.84;5076227;28;20481;-72
2021/01/21 04:02:57;;;;;;;0.40;0.37;;;;;;;7.74;63.19;99203.59;5076179;28;20456;-71
2021/01/21 04:05:23;;;;;;;0.40;0.30;;;;;;;7.73;64.32;99198.53;5076021;28;20476;-73
2021/01/21 04:07:49;;;;;;;0.50;0.40;;;;;;;7.77;62.34;99200.25;5076120;28;20445;-73
2021/01/21 04:10:16;;;;;;;0.40;0.30;;;;;;;7.81;63.81;99187.75;5075812;28;20483;-73
2021/01/21 04:12:42;;;;;;;0.40;0.30;;;;;;;7.79;63.77;99179.19;5075790;28;20510;-73
2021/01/21 04:15:09;;;;;;;0.40;0.30;;;;;;;7.83;62.46;99180.16;5075714;28;20998;-73
2021/01/21 04:17:36;;;;;;;0.40;0.30;;;;;;;7.82;62.33;99173.16;5075691;28;20451;-73
2021/01/21 04:20:02;;;;;;;0.50;0.40;;;;;;;7.86;63.33;99167.91;5075619;28;21018;-72
2021/01/21 04:22:28;;;;;;;0.90;0.80;;;;;;;7.84;62.77;99164.75;5075557;28;20946;-73
2021/01/21 04:24:54;;;;;;;3.30;0.47;;;;;;;7.81;62.68;99166.19;5075658;28;20904;-72
2021/01/21 04:27:20;;;;;;;0.50;0.37;;;;;;;7.67;64.85;99157.47;5075827;28;20480;-74
2021/01/21 04:29:47;;;;;;;0.40;0.30;;;;;;;7.64;64.12;99150.00;5075727;28;20441;-72
2021/01/21 04:32:14;;;;;;;0.40;0.30;;;;;;;7.58;65.13;99156.66;5075801;28;20850;-74
2021/01/21 04:34:40;;;;;;;0.40;0.30;;;;;;;7.57;64.78;99147.00;5075645;28;20838;-73
2021/01/21 04:37:06;;;;;;;0.50;0.43;;;;;;;7.50;64.50;99149.38;5075774;28;20469;-72
2021/01/21 04:39:32;;;;;;;0.60;0.33;;;;;;;7.46;63.86;99153.81;5075601;28;20444;-72
2021/01/21 04:41:58;;;;;;;0.40;0.30;;;;;;;7.45;64.28;99152.22;5075590;28;20468;-73
2021/01/21 04:44:24;;;;;;;2.10;0.43;;;;;;;7.48;64.86;99143.50;5075537;28;20835;-74
2021/01/21 04:46:51;;;;;;;0.60;0.50;;;;;;;7.46;63.93;99137.63;5075209;28;20930;-72
2021/01/21 04:49:20;;;;;;;0.40;0.30;;;;;;;7.39;64.43;99126.53;5075093;28;20445;-73
2021/01/21 04:51:50;;;;;;;0.40;0.30;;;;;;;7.36;64.07;99136.03;5075124;28;20996;-69
2021/01/21 04:54:26;;;;;;;0.40;0.30;;;;;;;7.36;65.21;99132.56;5074845;28;20523;-72
2021/01/21 04:56:55;;;;;;;0.40;0.30;;;;;;;7.33;65.21;99126.69;5075253;28;20449;-71
2021/01/21 04:59:22;;;;;;;0.40;0.30;;;;;;;7.29;65.45;99123.03;5075222;28;20472;-71
2021/01/21 05:01:49;;;;;;;0.40;0.30;;;;;;;7.31;65.50;99122.75;5075135;28;20578;-72
2021/01/21 05:04:16;;;;;;;1.83;0.73;;;;;;;7.32;66.03;99121.63;5074687;28;20974;-72
2021/01/21 05:06:43;;;;;;;0.60;0.60;;;;;;;7.21;66.18;99115.72;5074844;28;20477;-71
2021/01/21 05:09:10;;;;;;;0.40;0.30;;;;;;;7.23;65.92;99113.53;5075014;28;20490;-71
2021/01/21 05:11:36;;;;;;;0.50;0.30;;;;;;;7.26;65.45;99118.28;5074926;28;20438;-72
2021/01/21 05:14:02;;;;;;;0.40;0.30;;;;;;;7.36;65.39;99114.50;5074567;28;20481;-72
2021/01/21 05:16:29;;;;;;;0.40;0.30;;;;;;;7.39;63.96;99104.97;5074792;28;20449;-72
2021/01/21 05:18:55;;;;;;;0.40;0.30;;;;;;;7.51;64.12;99114.03;5074840;28;20469;-72
2021/01/21 05:21:22;;;;;;;0.40;0.30;;;;;;;7.58;63.21;99113.56;5074701;28;20517;-72
2021/01/21 05:23:54;;;;;;;0.50;0.40;;;;;;;7.61;63.64;99118.28;5074585;28;20443;-72
2021/01/21 05:26:21;;;;;;;0.40;0.30;;;;;;;7.64;63.68;99114.97;5074407;28;20492;-72
2021/01/21 05:28:48;;;;;;;0.40;0.30;;;;;;;7.64;63.06;99109.59;5074629;28;20473;-71
2021/01/21 05:31:14;;;;;;;0.63;0.50;;;;;;;7.68;63.63;99115.13;5074274;28;20434;-72
2021/01/21 05:33:41;;;;;;;0.57;0.50;;;;;;;7.66;63.71;99112.78;5074213;28;21004;-72
2021/01/21 05:36:07;;;;;;;0.40;0.30;;;;;;;7.66;64.17;99104.69;5074403;28;20832;-72
2021/01/21 05:38:34;;;;;;;0.40;0.30;;;;;;;7.67;64.14;99110.88;5074398;28;20491;-72
2021/01/21 05:41:02;;;;;;;0.40;0.30;;;;;;;7.70;63.97;99113.72;5073931;28;20477;-71
2021/01/21 05:43:28;;;;;;;0.40;0.30;;;;;;;7.64;64.47;99111.50;5073764;28;20441;-71
2021/01/21 05:45:54;;;;;;;0.40;0.30;;;;;;;7.71;63.98;99106.44;5073815;28;20904;-71
2021/01/21 05:48:21;;;;;;;0.60;0.40;;;;;;;7.76;63.12;99098.97;5074165;28;20498;-71
2021/01/21 05:50:47;;;;;;;0.63;0.50;;;;;;;7.77;63.27;99107.84;5074211;28;20441;-70
2021/01/21 05:53:17;;;;;;;0.70;0.43;;;;;;;7.75;62.86;99094.69;5074094;28;20481;-70
2021/01/21 05:55:44;;;;;;;0.83;0.60;;;;;;;7.71;63.99;99095.66;5073801;28;20473;-70
2021/01/21 05:58:11;;;;;;;0.40;0.30;;;;;;;7.70;64.16;99089.47;5074117;28;20433;-73
2021/01/21 06:00:39;;;;;;;0.40;0.30;;;;;;;7.72;63.82;99095.31;5073848;28;20481;-71
2021/01/21 06:03:08;;;;;;;0.40;0.30;;;;;;;7.69;64.58;99090.56;5073902;28;20449;-71
2021/01/21 06:05:35;;;;;;;0.40;0.30;;;;;;;7.70;63.35;99085.94;5073824;28;20461;-71
2021/01/21 06:08:04;;;;;;;0.70;0.40;;;;;;;7.72;64.06;99095.31;5073539;28;20448;-71
2021/01/21 06:10:33;;;;;;;0.40;0.30;;;;;;;7.73;63.46;99101.50;5073830;28;20445;-72
2021/01/21 06:13:04;;;;;;;0.40;0.27;;;;;;;7.77;62.53;99094.34;5073425;28;20430;-71
2021/01/21 06:15:32;;;;;;;0.50;0.43;;;;;;;7.85;62.89;99080.09;5073533;28;20473;-71
2021/01/21 06:17:58;;;;;;;0.40;0.30;;;;;;;7.87;62.58;99088.63;5073323;28;20477;-70
2021/01/21 06:20:24;;;;;;;0.60;0.50;;;;;;;7.96;62.37;99083.22;5073545;28;20574;-71
2021/01/21 06:22:56;;;;;;;0.40;0.30;;;;;;;7.98;61.00;99081.00;5073620;28;20472;-70
2021/01/21 06:25:23;;;;;;;1.37;1.27;;;;;;;8.04;60.63;99077.03;5073185;28;20493;-70
2021/01/21 06:27:50;;;;;;;0.50;0.43;;;;;;;8.13;60.96;99082.41;5073212;28;20449;-71
2021/01/21 06:30:19;;;;;;;0.40;0.30;;;;;;;8.17;60.15;99070.63;5073188;28;20476;-71
2021/01/21 06:32:59;;;;;;;0.40;0.30;;;;;;;8.20;60.38;99063.81;5073104;28;20529;-71
2021/01/21 06:35:31;;;;;;;0.40;0.30;;;;;;;8.23;60.17;99057.75;5073435;28;20465;-72
2021/01/21 06:38:04;;;;;;;0.40;0.30;;;;;;;8.25;59.79;99060.94;5073468;28;20448;-71
2021/01/21 06:40:32;;;;;;;0.57;0.30;;;;;;;8.26;60.73;99062.53;5073580;28;20501;-71
2021/01/21 06:43:03;;;;;;;0.50;0.40;;;;;;;8.35;59.94;99039.78;5072970;28;20481;-71
2021/01/21 06:45:32;;;;;;;0.50;0.50;;;;;;;8.36;59.96;99054.06;5072983;28;20488;-71
2021/01/21 06:47:59;;;;;;;0.40;0.30;;;;;;;8.43;58.95;99040.13;5072816;28;20449;-71
2021/01/21 06:50:28;;;;;;;0.70;0.33;;;;;;;8.47;59.86;99041.06;5073213;28;20592;-71
2021/01/21 06:52:58;;;;;;;0.40;0.30;;;;;;;8.57;58.78;99029.88;5072970;28;20430;-68
2021/01/21 06:55:25;;;;;;;0.40;0.30;;;;;;;8.66;58.61;99043.31;5071581;28;20488;-72
2021/01/21 06:57:51;;;;;;;1.50;0.53;;;;;;;8.66;57.73;99046.81;5072827;28;20441;-69
2021/01/21 07:00:38;;;;;;;0.40;0.30;;;;;;;8.72;58.01;99047.41;5072755;28;20489;-70
2021/01/21 07:03:05;;;;;;;0.40;0.30;;;;;;;8.77;57.76;99041.84;5073061;28;20426;-70
2021/01/21 07:05:32;;;;;;;0.93;0.57;;;;;;;8.77;57.35;99050.75;5073074;28;20496;-71
2021/01/21 07:08:06;;;;;;;1.67;1.57;;;;;;;8.78;58.17;99046.91;5072742;28;20958;-71
2021/01/21 07:10:35;;;;;;;2.10;0.57;;;;;;;8.72;58.21;99050.13;5073091;28;20451;-71
2021/01/21 07:13:05;;;;;;;1.60;1.00;;;;;;;8.76;57.42;99032.94;5072680;28;20453;-71
2021/01/21 07:15:33;;;;;;;0.40;0.30;;;;;;;8.77;58.02;99039.94;5072745;28;20456;-73
2021/01/21 07:18:02;;;;;;;2.10;0.43;;;;;;;8.77;58.89;99039.94;5072844;28;20950;-73
2021/01/21 07:20:32;;;;;;;0.40;0.40;;;;;;;8.83;57.39;99024.34;5072987;28;20481;-73
2021/01/21 07:23:05;;;;;;;0.40;0.40;;;;;;;8.94;57.34;99027.44;5073094;28;20432;-70
2021/01/21 07:25:33;;;;;;;0.97;0.80;;;;;;;8.95;57.50;99002.03;5072727;28;20450;-73
2021/01/21 07:28:08;;;;;;;0.50;0.40;;;;;;;8.94;56.78;99009.34;5072997;28;20472;-73
2021/01/21 07:30:37;;;;;;;0.40;0.30;;;;;;;9.06;56.23;99008.59;5072834;28;20432;-73
2021/01/21 07:33:27;;;;;;;0.40;0.30;;;;;;;9.12;57.06;98993.78;5072630;28;20962;-72
2021/01/21 07:35:54;;;;;;;0.40;0.30;;;;;;;9.10;57.16;99007.59;5052591;28;20476;-72
2021/01/21 07:38:46;;;;;;;0.63;0.40;;;;;;;9.04;57.73;99016.25;5072572;28;20445;-73
2021/01/21 07:41:56;;;;;;;0.50;0.30;;;;;;;8.98;58.32;99012.16;5072829;28;20472;-74
2021/01/21 07:44:22;;;;;;;0.40;0.30;;;;;;;8.96;56.98;99017.09;5072396;28;20480;-73
2021/01/21 07:46:48;;;;;;;0.40;0.30;;;;;;;8.97;58.06;99010.56;5072802;28;20523;-73
2021/01/21 07:49:25;;;;;;;0.50;0.40;;;;;;;9.03;57.23;99034.38;5072615;28;20448;-73
2021/01/21 07:52:03;;;;;;;0.40;0.30;;;;;;;8.97;58.37;99015.97;5072122;28;20811;-73
2021/01/21 07:54:30;;;;;;;0.50;0.40;;;;;;;8.97;57.55;99032.19;5071981;28;20480;-74
2021/01/21 07:56:57;;;;;;;0.40;0.30;;;;;;;8.98;57.59;98993.25;5072308;28;20934;-73
2021/01/21 07:59:24;;;;;;;2.03;0.40;;;;;;;9.00;58.47;99005.31;5072556;28;20437;-72
2021/01/21 08:02:00;;;;;;;0.40;0.30;;;;;;;8.90;58.88;99002.19;5072154;28;20527;-73
2021/01/21 08:04:26;;;;;;;0.40;0.30;;;;;;;8.91;58.63;99001.09;5072588;28;20494;-72
2021/01/21 08:06:57;;;;;;;1.13;0.63;;;;;;;8.92;58.18;99002.69;5075615;28;20928;-69
2021/01/21 08:09:24;;;;;;;0.57;0.47;;;;;;;8.91;59.09;99007.28;5076180;28;20524;-70
2021/01/21 08:11:51;;;;;;;2.00;0.60;;;;;;;8.89;58.88;99006.03;5076084;28;20469;-70
2021/01/21 08:14:18;;;;;;;1.23;0.63;;;;;;;8.94;57.96;99020.16;5076027;28;20461;-70
2021/01/21 08:16:45;;;;;;;0.50;0.30;;;;;;;9.10;57.91;99014.94;5076023;28;20441;-70
2021/01/21 08:19:13;;;;;;;0.40;0.33;;;;;;;9.11;58.52;98997.59;5075633;28;20818;-73
2021/01/21 08:21:39;;;;;;;0.50;0.40;;;;;;;9.12;58.06;99006.47;5075927;28;20567;-72
2021/01/21 08:24:08;;;;;;;0.40;0.30;;;;;;;9.18;57.62;99002.47;5075530;28;20492;-72
2021/01/21 08:26:36;;;;;;;0.40;0.30;;;;;;;9.26;57.99;99015.13;5075948;28;20437;-72
2021/01/21 08:29:08;;;;;;;1.73;1.63;;;;;;;9.20;58.54;98998.31;5075925;28;20815;-72
2021/01/21 08:31:40;;;;;;;3.20;0.50;;;;;;;9.31;57.79;99001.41;5075839;28;20454;-71
2021/01/21 08:34:12;;;;;;;0.70;0.70;;;;;;;9.38;57.68;99011.66;5075370;28;20472;-72
2021/01/21 08:36:38;;;;;;;0.70;0.70;;;;;;;9.51;56.50;99014.09;5075831;28;20430;-71
2021/01/21 08:39:06;;;;;;;0.63;0.63;;;;;;;9.53;57.18;99006.44;5075595;28;20506;-70
2021/01/21 08:41:32;;;;;;;0.40;0.30;;;;;;;9.60;56.72;99005.91;5075554;28;20508;-70
2021/01/21 08:44:01;;;;;;;1.43;0.50;;;;;;;9.65;56.44;99003.00;5075444;28;20453;-71
2021/01/21 08:46:28;;;;;;;0.40;0.30;;;;;;;9.70;56.79;99005.50;5075456;28;20446;-72
2021/01/21 08:48:54;;;;;;;0.90;0.57;;;;;;;9.76;56.07;99004.16;5075360;28;20449;-71
2021/01/21 08:51:25;;;;;;;0.40;0.30;;;;;;;9.68;57.97;99005.03;5075346;28;20490;-71
2021/01/21 08:53:52;;;;;;;1.17;0.67;;;;;;;9.68;56.67;99006.94;5075026;28;20453;-72
2021/01/21 08:56:18;;;;;;;0.63;0.63;;;;;;;9.65;57.93;98992.19;5075059;28;20931;-71
2021/01/21 08:58:44;;;;;;;0.53;0.40;;;;;;;9.69;56.59;99003.91;5075341;28;20468;-72
2021/01/21 09:01:12;;;;;;;0.40;0.30;;;;;;;9.83;56.05;98995.50;5074713;28;20473;-71
2021/01/21 09:03:45;;;;;;;0.40;0.30;;;;;;;9.86;56.16;98990.19;5074864;28;20540;-72
2021/01/21 09:08:49;;;;;;;0.40;0.30;;;;;;;10.08;56.28;98988.19;5034162;28;20463;-66
2021/01/21 09:11:33;;;;;;;0.93;0.83;;;;;;;10.14;54.88;98976.03;5035710;28;20441;-65
2021/01/21 09:14:00;;;;;;;0.40;0.30;;;;;;;10.20;55.09;98979.31;5036218;28;20484;-65
2021/01/21 09:16:44;;;;;;;0.60;0.50;;;;;;;10.27;56.26;98969.53;5037241;28;20483;-66
2021/01/21 09:19:11;;;;;;;0.40;0.30;;;;;;;10.34;55.56;98972.44;5066483;28;20461;-65
2021/01/21 09:21:37;;;;;;;0.40;0.30;;;;;;;10.39;55.86;98957.13;5074991;28;21009;-65
2021/01/21 09:24:05;;;;;;;0.50;0.40;;;;;;;10.47;54.35;98958.91;5061779;28;20454;-66
2021/01/21 09:26:31;;;;;;;0.57;0.37;;;;;;;10.54;54.19;98970.75;5055316;28;20454;-65
2021/01/21 09:28:59;;;;;;;1.33;1.23;;;;;;;10.59;54.32;98973.22;5056264;28;20482;-66
2021/01/21 09:31:28;;;;;;;0.40;0.30;;;;;;;10.70;56.30;98968.13;5062534;28;20449;-67
2021/01/21 09:33:55;;;;;;;0.40;0.30;;;;;;;10.75;54.54;98975.22;5064572;28;21013;-66
2021/01/21 09:36:26;;;;;;;0.40;0.30;;;;;;;10.80;54.18;98974.97;5075531;28;20530;-65
2021/01/21 09:38:52;;;;;;;0.70;0.70;;;;;;;10.89;56.02;98989.22;5068863;28;20445;-67
2021/01/21 09:41:19;;;;;;;0.40;0.30;;;;;;;10.99;54.76;98994.16;5064679;28;20478;-67
2021/01/21 09:43:45;;;;;;;0.70;0.63;;;;;;;11.14;54.42;98994.53;5068983;28;20497;-65
2021/01/21 09:46:11;;;;;;;1.00;0.40;;;;;;;11.23;52.55;99006.81;5058009;28;20449;-65
2021/01/21 09:48:37;;;;;;;0.50;0.30;;;;;;;11.31;52.11;99011.31;5071448;28;20456;-65
2021/01/21 09:51:05;;;;;;;0.40;0.30;;;;;;;11.40;53.42;99007.66;5074221;28;20469;-65
2021/01/21 09:53:31;;;;;;;0.40;0.30;;;;;;;11.49;53.35;99013.72;5074512;28;20953;-66
2021/01/21 09:55:57;;;;;;;16.10;1.50;;;;;;;11.57;52.90;99023.66;5075044;28;20473;-66
2021/01/21 09:58:24;;;;;;;5.23;0.90;;;;;;;11.62;52.40;99020.69;5076190;28;20469;-66
2021/01/21 10:00:51;;;;;;;0.97;0.53;;;;;;;11.70;51.34;98991.84;5075139;28;20485;-66
2021/01/21 10:03:17;;;;;;;0.40;0.30;;;;;;;11.82;53.03;99006.16;5074705;28;20452;-65
2021/01/21 10:05:44;;;;;;;0.70;0.60;;;;;;;11.89;51.82;99010.16;5074622;28;20501;-66
2021/01/21 10:08:11;;;;;;;0.83;0.47;;;;;;;11.96;52.75;99007.66;5074387;28;20526;-66
2021/01/21 10:10:37;;;;;;;0.80;0.60;;;;;;;11.99;50.78;99021.28;5075141;28;20484;-66
2021/01/21 10:13:03;;;;;;;0.90;0.40;;;;;;;12.04;51.40;99028.38;5074332;28;20450;-66
2021/01/21 10:15:30;;;;;;;0.70;0.50;;;;;;;12.09;50.77;99028.94;5074988;28;20449;-66
2021/01/21 10:17:56;;;;;;;0.40;0.30;;;;;;;12.16;50.26;99027.53;5074762;28;20476;-66
2021/01/21 10:20:22;;;;;;;1.27;0.40;;;;;;;12.26;51.13;99033.25;5075625;28;20473;-66
2021/01/21 10:22:48;;;;;;;1.27;0.73;;;;;;;12.36;50.11;99029.19;5075147;28;20946;-67
2021/01/21 10:25:15;;;;;;;0.40;0.30;;;;;;;12.42;49.68;99030.50;5074808;28;20448;-66
2021/01/21 10:27:42;;;;;;;0.40;0.30;;;;;;;12.56;49.60;99036.25;5075796;28;20458;-66
2021/01/21 10:30:09;;;;;;;0.40;0.30;;;;;;;12.66;48.74;99034.97;5074766;28;20449;-66
2021/01/21 10:32:35;;;;;;;0.40;0.40;;;;;;;12.71;48.73;99039.34;5075194;28;20445;-67
2021/01/21 10:35:02;;;;;;;0.60;0.40;;;;;;;12.79;48.65;99031.00;5075141;28;21028;-66
2021/01/21 10:37:28;;;;;;;0.40;0.30;;;;;;;12.85;50.01;99031.50;5075385;28;20454;-66
2021/01/21 10:39:55;;;;;;;0.40;0.30;;;;;;;12.90;49.59;99022.28;5075540;28;20527;-67
2021/01/21 10:42:22;;;;;;;0.40;0.30;;;;;;;12.95;49.00;99036.38;5075413;28;20492;-66
2021/01/21 10:44:48;;;;;;;0.80;0.33;;;;;;;13.01;48.46;99045.03;5074904;28;20488;-66
2021/01/21 10:47:14;;;;;;;0.40;0.30;;;;;;;13.04;49.43;99039.69;5076042;28;20875;-67
2021/01/21 10:49:40;;;;;;;0.50;0.50;;;;;;;13.08;48.40;99039.75;5075791;28;20452;-66
2021/01/21 10:52:06;;;;;;;0.40;0.30;;;;;;;13.19;48.59;99045.41;5075035;28;20491;-66
2021/01/21 11:49:06;;;;;;;0.40;0.40;;;;;;;13.53;49.59;99041.09;5070343;28;20531;-72
2021/01/21 11:51:32;;;;;;;0.40;0.30;;;;;;;13.61;48.72;99042.81;5058998;28;20461;-70
2021/01/21 11:53:59;;;;;;;0.83;0.83;;;;;;;13.59;49.14;99055.97;5050102;28;20958;-72
2021/01/21 11:56:25;;;;;;;0.40;0.30;;;;;;;13.56;48.72;99040.41;5051649;28;20442;-71
2021/01/21 11:58:51;;;;;;;0.40;0.30;;;;;;;13.47;49.27;99031.66;5049857;28;20497;-72
2021/01/21 12:01:17;;;;;;;0.57;0.50;;;;;;;13.44;49.69;99027.72;5057100;28;20457;-72
2021/01/21 12:03:43;;;;;;;1.00;0.60;;;;;;;13.35;50.23;99041.53;5069753;28;20968;-71
2021/01/21 12:06:10;;;;;;;0.60;0.60;;;;;;;13.32;50.65;99031.34;5070024;28;20495;-71
2021/01/21 12:08:37;;;;;;;0.40;0.37;;;;;;;13.27;50.48;99026.22;5069855;28;20531;-70
2021/01/21 12:11:03;;;;;;;0.60;0.40;;;;;;;13.23;50.78;99040.88;5069864;28;20446;-71
2021/01/21 12:13:29;;;;;;;0.60;0.33;;;;;;;13.25;50.88;99033.94;5069864;28;20429;-71
2021/01/21 12:15:55;;;;;;;0.40;0.30;;;;;;;13.29;50.65;99034.03;5069832;28;20473;-72
2021/01/21 12:18:21;;;;;;;0.40;0.30;;;;;;;13.29;50.64;99039.47;5069621;28;20481;-72
2021/01/21 12:20:47;;;;;;;0.40;0.30;;;;;;;13.29;50.78;99042.97;5069770;28;20465;-72
2021/01/21 12:23:14;;;;;;;0.80;0.70;;;;;;;13.23;51.09;99038.16;5069644;28;20445;-71
2021/01/21 12:25:41;;;;;;;0.40;0.30;;;;;;;13.27;50.98;99036.28;5069626;28;20507;-68
2021/01/21 12:28:07;;;;;;;0.40;0.30;;;;;;;13.21;51.61;99021.41;5069166;28;20453;-74
2021/01/21 12:30:34;;;;;;;0.60;0.40;;;;;;;13.23;51.00;99022.63;5069460;28;20819;-71
2021/01/21 12:33:00;;;;;;;0.40;0.30;;;;;;;13.25;51.42;99028.50;5069028;28;21058;-72
2021/01/21 12:35:26;;;;;;;2.90;0.50;;;;;;;13.22;51.76;99033.84;5069456;28;20866;-72
2021/01/21 12:37:52;;;;;;;0.43;0.40;;;;;;;13.10;52.35;99037.47;5069248;28;20963;-71
2021/01/21 12:40:19;;;;;;;0.40;0.30;;;;;;;13.16;52.16;99025.19;5069178;28;20497;-72